Flight Track Log - Related Links

Times and Time Zones

All times are in EDT time to prevent confusion due to time zone crossing. See the EJA929 flight status page for this flight to view local times or setup timezone preferences in your user account.

Time Position Orientation Groundspeed Altitude Reporting Facility
EDT Latitude Longitude Course Direction KTS MPH feet Rate Location/Type
Wed 12:21:24 PM 38.6867 -90.7700 310° West 229 264 3,500  Level Kansas City Center
Wed 12:22:26 PM 38.7400 -90.8492 311° West 243 280 6,600 2,855 Climbing Kansas City Center
Wed 12:23:28 PM 38.7669 -90.9394 291° West 268 308 9,400 2,516 Climbing Kansas City Center
Wed 12:24:30 PM 38.7958 -91.0369 291° West 284 327 11,800 2,371 Climbing Kansas City Center
Wed 12:25:00 PM 38.9444 -91.0774 280° West  Level FlightAware Approximate
Wed 12:25:32 PM 38.8272 -91.1403 291° West 303 349 14,300  Level Kansas City Center
Wed 12:26:34 PM 38.8581 -91.2458 291° West 313 360 16,200 1,645 Climbing Kansas City Center
Wed 12:27:36 PM 38.8919 -91.3606 291° West 334 384 17,700 1,597 Climbing Kansas City Center
Wed 12:28:38 PM 38.9339 -91.5053 290° West 356 410 19,500 1,597 Climbing Kansas City Center
Wed 12:29:40 PM 38.9703 -91.6281 291° West 365 420 21,000 1,500 Climbing Kansas City Center
Wed 12:30:42 PM 39.0117 -91.7697 291° West 380 437 22,600 1,645 Climbing Kansas City Center
Wed 12:31:44 PM 39.0494 -91.9022 290° West 390 449 24,400 1,790 Climbing Kansas City Center
Wed 12:32:46 PM 39.0872 -92.0331 290° West 391 450 26,300 1,806 Climbing Kansas City Center
Wed 12:34:00 PM 39.1046 -92.2216 291° West  Level Estimated
Wed 12:34:50 PM 39.1606 -92.2878 291° West 382 440 30,000  Level Kansas City Center
Wed 12:35:52 PM 39.1975 -92.4150 291° West 381 438 31,900 1,935 Climbing Kansas City Center
Wed 12:36:54 PM 39.2414 -92.5708 290° West 385 443 34,000 1,790 Climbing Kansas City Center
Wed 12:37:56 PM 39.2767 -92.6961 290° West 389 448 35,600 1,597 Climbing Kansas City Center
Wed 12:38:58 PM 39.3136 -92.8261 290° West 391 450 37,300 1,645 Climbing Kansas City Center
Wed 12:40:00 PM 39.3500 -92.9600 289° West 393 452 39,000 1,306 Climbing Kansas City Center
Wed 12:41:02 PM 39.3875 -93.0917 290° West 394 453 40,000 677 Climbing Kansas City Center
Wed 12:42:04 PM 39.4333 -93.2625 289° West 415 478 40,400 484 Climbing Kansas City Center
Wed 12:43:06 PM 39.4758 -93.4136 290° West 438 504 41,000 774 Climbing Kansas City Center
Wed 12:44:08 PM 39.5167 -93.5642 289° West 446 513 42,000 726 Climbing Kansas City Center
Wed 12:45:10 PM 39.5581 -93.7139 290° West 444 511 42,500 484 Climbing Kansas City Center
Wed 12:46:12 PM 39.6019 -93.8772 289° West 444 511 43,000 242 Climbing Kansas City Center
Wed 12:47:14 PM 39.6481 -94.0478 289° West 450 518 43,000  Level Kansas City Center
Wed 12:48:17 PM 39.6872 -94.1928 289° West 447 514 43,000  Level Kansas City Center
Wed 12:49:19 PM 39.7267 -94.3411 289° West 453 521 43,000  Level Kansas City Center
Wed 12:50:21 PM 39.7731 -94.5142 289° West 455 524 43,000  Level Kansas City Center
Wed 12:51:23 PM 39.8117 -94.6636 289° West 456 525 43,000  Level Kansas City Center
Wed 12:52:25 PM 39.8575 -94.8375 289° West 457 526 43,000  Level Kansas City Center
Wed 12:53:27 PM 39.8956 -94.9861 289° West 455 524 43,000  Level Kansas City Center
Wed 12:54:29 PM 39.9406 -95.1592 289° West 455 524 43,000  Level Kansas City Center
Wed 12:55:31 PM 39.9778 -95.3083 288° West 454 522 43,000  Level Kansas City Center
Wed 12:56:33 PM 40.0219 -95.4839 288° West 456 525 43,000  Level Kansas City Center
Wed 12:57:35 PM 40.0600 -95.6322 289° West 454 522 43,000  Level Kansas City Center
Wed 12:58:37 PM 40.1028 -95.8086 288° West 456 525 43,000  Level Kansas City Center
Wed 12:59:37 PM 40.1419 -95.9675 288° West 452 520 43,000  Level Minneapolis Center
Wed 01:00:39 PM 40.1811 -96.1264 288° West 454 522 43,000  Level Minneapolis Center
Wed 01:01:41 PM 40.2069 -96.2864 282° West 451 519 43,000  Level Minneapolis Center
Wed 01:02:43 PM 40.2175 -96.4508 275° West 450 518 43,000  Level Minneapolis Center
Wed 01:03:46 PM 40.2292 -96.6133 275° West 449 517 43,000  Level Minneapolis Center
Wed 01:04:48 PM 40.2411 -96.7794 275° West 455 524 43,000  Level Minneapolis Center
Wed 01:05:50 PM 40.2544 -96.9769 275° West 453 521 43,000  Level Minneapolis Center
Wed 01:06:52 PM 40.2656 -97.1414 275° West 453 521 43,000  Level Minneapolis Center
Wed 01:07:54 PM 40.2764 -97.3064 275° West 453 521 43,000  Level Minneapolis Center
Wed 01:08:56 PM 40.2864 -97.4683 275° West 453 521 43,000  Level Minneapolis Center
Wed 01:09:58 PM 40.2964 -97.6342 275° West 456 525 43,000  Level Minneapolis Center
Wed 01:11:00 PM 40.3053 -97.7963 274° West  Level FlightAware Approximate
Wed 01:12:02 PM 40.3192 -97.9992 274° West 456 525 43,000  Level Minneapolis Center
Wed 01:13:04 PM 40.3264 -98.1325 274° West 457 526 43,000  Level Minneapolis Center
Wed 01:14:06 PM 40.3375 -98.3325 274° West 457 526 43,000  Level Minneapolis Center
Wed 01:15:08 PM 40.3467 -98.5008 274° West 459 528 43,000  Level Minneapolis Center
Wed 01:16:10 PM 40.3553 -98.6694 274° West 460 529 43,000  Level Minneapolis Center
Wed 01:17:12 PM 40.3647 -98.8378 274° West 460 529 43,000  Level Minneapolis Center
Wed 01:18:15 PM 40.3731 -99.0058 274° West 461 531 43,000  Level Minneapolis Center
Wed 01:19:12 PM 40.3819 -99.1728 274° West 458 527 43,000  Level Denver Center
Wed 01:20:14 PM 40.3897 -99.3408 274° West 459 528 43,000  Level Denver Center
Wed 01:21:16 PM 40.3975 -99.5092 274° West 461 531 43,000  Level Denver Center
Wed 01:22:18 PM 40.4064 -99.7086 273° West 456 525 43,000  Level Denver Center
Wed 01:23:20 PM 40.4142 -99.8767 274° West 458 527 43,000  Level Denver Center
Wed 01:24:22 PM 40.4208 -100.0475 273° West 453 521 43,000  Level Denver Center
Wed 01:25:24 PM 40.4267 -100.2067 273° West 454 522 43,000  Level Denver Center
Wed 01:26:26 PM 40.4344 -100.3925 273° West 455 524 43,000  Level Denver Center
Wed 01:27:28 PM 40.4394 -100.5506 272° West 452 520 43,000  Level Denver Center
Wed 01:28:30 PM 40.4456 -100.7094 273° West 453 521 43,000  Level Denver Center
Wed 01:29:32 PM 40.4522 -100.8958 273° West 455 524 43,000  Level Denver Center
Wed 01:30:34 PM 40.4603 -101.0550 274° West 454 522 43,000  Level Denver Center
Wed 01:31:36 PM 40.4678 -101.2422 273° West 458 527 43,000  Level Denver Center
Wed 01:32:38 PM 40.4742 -101.4033 273° West 459 528 43,000  Level Denver Center
Wed 01:33:41 PM 40.4819 -101.5928 273° West 464 534 43,000  Level Denver Center
Wed 01:34:43 PM 40.4883 -101.7544 273° West 464 534 43,000  Level Denver Center
Wed 01:35:45 PM 40.4942 -101.9439 272° West 464 534 43,000  Level Denver Center
Wed 01:36:47 PM 40.5003 -102.1064 273° West 464 534 43,000 -48 Level Denver Center
Wed 01:37:49 PM 40.5039 -102.2678 272° West 462 532 42,900 -823 Descending Denver Center
Wed 01:38:51 PM 40.4697 -102.4433 256° West 445 512 41,300 -1,548 Descending Denver Center
Wed 01:39:53 PM 40.4417 -102.5928 256° West 441 507 39,700 -1,645 Descending Denver Center
Wed 01:40:55 PM 40.4078 -102.7753 256° West 444 511 37,900 -2,274 Descending Denver Center
Wed 01:41:57 PM 40.3778 -102.9372 256° West 453 521 35,000 -2,661 Descending Denver Center
Wed 01:42:59 PM 40.3458 -103.1072 256° West 475 547 32,400 -1,984 Descending Denver Center
Wed 01:44:01 PM 40.3131 -103.2728 255° West 474 545 30,900 -1,984 Descending Denver Center
Wed 01:45:03 PM 40.2808 -103.4408 256° West 476 548 28,300 -2,419 Descending Denver Center
Wed 01:46:05 PM 40.2492 -103.5997 255° West 460 529 25,900 -2,371 Descending Denver Center
Wed 01:47:07 PM 40.2189 -103.7658 257° West 407 468 23,400 -1,984 Descending Denver Center
Wed 01:48:09 PM 40.1953 -103.8644 253° West 345 397 21,800 -1,935 Descending Denver Center
Wed 01:49:11 PM 40.1367 -103.9925 239° Southwest 332 382 19,400 -1,984 Descending Denver Center
Wed 01:50:13 PM 40.0889 -104.0933 238° Southwest 328 377 17,700 -1,161 Descending Denver Center
Wed 01:51:15 PM 40.0386 -104.2019 239° Southwest 324 373 17,000 -384 Descending Denver Center
Wed 01:52:18 PM 39.9928 -104.3003 239° Southwest 319 367 16,900 -864 Descending Denver Center
Wed 01:53:20 PM 39.9461 -104.4008 239° Southwest 323 372 15,200 -1,500 Descending Denver Center
Wed 01:54:22 PM 39.8953 -104.5083 238° Southwest 323 372 13,800 -1,452 Descending Denver Center
Wed 01:55:24 PM 39.8389 -104.6147 235° Southwest 359 413 12,200 -1,632 Descending Denver Center
Wed 01:56:38 PM 39.7814 -104.7325 238° Southwest 378 435 10,100 -1,544 Descending Denver Center
Wed 01:57:40 PM 39.7303 -104.8394 238° Southwest 283 326 8,700 -1,306 Descending Denver Center
Wed 01:58:42 PM 39.6642 -104.8550 190° South 213 245 7,400 -1,065 Descending Denver Center
Wed 01:59:44 PM 39.6208 -104.8533 178° South 148 170 6,500 -774 Descending Denver Center
Wed 02:00:46 PM 39.5850 -104.8525 179° South 132 152 5,800 -677 Descending Denver Center
Wed 02:02:00 PM 39.5701 -104.8493 174° South  Level Estimated
Wed 02:09:00 PM 39.5701 -104.8493 174° South  Level Estimated
Wed 02:10:00 PM 39.5701 -104.8493 174° South  Level Estimated

Login

Don't have an account? Register now (free) for customized features, flight alerts, and more!